Weather at East Gore Eco Airpark

Public forecast

Using degrees Celsius for public forecast. Weather courtesy of forecast.io.

Closest aviation weather report (METAR) to East Gore Eco Airpark

Closest report is Halifax / Stanfield International Airport, 16.4 nm (30.4 km) SSE.

2024/04/24 16:00 (retrieved 53 minutes ago)

CYHZ 241600Z 34007KT 300V360 15SM BKN017 BKN084 BKN250 09/05 A2977 RMK SC6AC1CI1 AC TR SLP089

Closest aviation forecast (TAF) to East Gore Eco Airpark

Closest forecast is Halifax / Stanfield International Airport, 16.4 nm (30.4 km) SSE.

2024/04/24 15:42 (retrieved 1 hour ago)

TAF CYHZ 241440Z 2415/2512 01007KT P6SM BKN015 OVC060 TEMPO 2415/2417 SCT015 BKN060 FM241700 30010KT P6SM FEW030 FM242300 22008KT P6SM BKN060 FM250200 24012KT P6SM -RA OVC025 FM250400 26012KT 4SM -RA BR OVC012 FM250700 29012G22KT 4SM -SNRA SCT007 OVC012 FM250900 30018G28KT P6SM BKN025 FM251100 30015G25KT P6SM FEW030 RMK NXT FCST BY 241800Z